sensor_id;sensor_type;location;lat;lon;timestamp;pressure;altitude;pressure_sealevel;temperature;humidity
66486;BME280;53303;47.476;8.084;2023-02-24T00:01:24;94775.22;;;19.95;36.57
66486;BME280;53303;47.476;8.084;2023-02-24T00:03:55;94785.25;;;19.98;36.62
66486;BME280;53303;47.476;8.084;2023-02-24T00:06:28;94757.78;;;19.81;36.60
66486;BME280;53303;47.476;8.084;2023-02-24T00:09:17;94785.25;;;19.98;36.62
66486;BME280;53303;47.476;8.084;2023-02-24T00:11:46;94767.88;;;19.97;36.50
66486;BME280;53303;47.476;8.084;2023-02-24T00:14:15;94774.16;;;19.98;36.58
66486;BME280;53303;47.476;8.084;2023-02-24T00:16:42;94766.69;;;19.93;36.54
66486;BME280;53303;47.476;8.084;2023-02-24T00:19:16;94767.16;;;19.97;36.55
66486;BME280;53303;47.476;8.084;2023-02-24T00:21:43;94761.16;;;19.93;36.69
66486;BME280;53303;47.476;8.084;2023-02-24T00:24:12;94739.34;;;19.84;36.64
66486;BME280;53303;47.476;8.084;2023-02-24T00:26:38;94754.56;;;19.96;36.66
66486;BME280;53303;47.476;8.084;2023-02-24T00:29:10;94757.56;;;19.98;36.58
66486;BME280;53303;47.476;8.084;2023-02-24T00:31:39;94749.31;;;19.92;36.59
66486;BME280;53303;47.476;8.084;2023-02-24T00:34:10;94757.56;;;19.98;36.61
66486;BME280;53303;47.476;8.084;2023-02-24T00:36:39;94724.09;;;19.77;36.91
66486;BME280;53303;47.476;8.084;2023-02-24T00:39:07;94755.84;;;19.95;36.73
66486;BME280;53303;47.476;8.084;2023-02-24T00:41:41;94756.06;;;19.97;36.78
66486;BME280;53303;47.476;8.084;2023-02-24T00:44:14;94731.81;;;19.84;36.48
66486;BME280;53303;47.476;8.084;2023-02-24T00:46:44;94745.00;;;19.97;36.71
66486;BME280;53303;47.476;8.084;2023-02-24T00:49:18;94750.53;;;19.97;36.70
66486;BME280;53303;47.476;8.084;2023-02-24T00:51:48;94749.03;;;19.96;36.63
66486;BME280;53303;47.476;8.084;2023-02-24T00:54:15;94714.56;;;19.72;36.57
66486;BME280;53303;47.476;8.084;2023-02-24T00:56:45;94745.75;;;19.97;36.74
66486;BME280;53303;47.476;8.084;2023-02-24T00:59:12;94736.69;;;19.97;36.62
66486;BME280;53303;47.476;8.084;2023-02-24T01:01:39;94739.47;;;19.97;36.77
66486;BME280;53303;47.476;8.084;2023-02-24T01:04:07;94743.50;;;19.96;36.61
66486;BME280;53303;47.476;8.084;2023-02-24T01:06:42;94725.75;;;19.86;36.77
66486;BME280;53303;47.476;8.084;2023-02-24T01:09:11;94740.72;;;19.96;36.74
66486;BME280;53303;47.476;8.084;2023-02-24T01:11:43;94731.97;;;19.92;36.73
66486;BME280;53303;47.476;8.084;2023-02-24T01:14:30;94741.25;;;19.94;36.66
66486;BME280;53303;47.476;8.084;2023-02-24T01:16:58;94729.63;;;19.96;36.70
66486;BME280;53303;47.476;8.084;2023-02-24T01:19:26;94728.91;;;19.95;36.76
66486;BME280;53303;47.476;8.084;2023-02-24T01:21:59;94736.38;;;19.82;36.74
66486;BME280;53303;47.476;8.084;2023-02-24T01:24:26;94717.28;;;19.78;36.73
66486;BME280;53303;47.476;8.084;2023-02-24T01:26:53;94719.03;;;19.81;36.64
66486;BME280;53303;47.476;8.084;2023-02-24T01:29:19;94736.25;;;19.93;36.69
66486;BME280;53303;47.476;8.084;2023-02-24T01:31:48;94728.28;;;19.84;36.59
66486;BME280;53303;47.476;8.084;2023-02-24T01:34:17;94729.41;;;19.94;36.72
66486;BME280;53303;47.476;8.084;2023-02-24T01:36:45;94709.72;;;19.78;36.58
66486;BME280;53303;47.476;8.084;2023-02-24T01:39:11;94717.50;;;19.80;36.58
66486;BME280;53303;47.476;8.084;2023-02-24T01:41:39;94725.38;;;19.95;36.81
66486;BME280;53303;47.476;8.084;2023-02-24T01:46:57;94733.69;;;19.95;36.69
66486;BME280;53303;47.476;8.084;2023-02-24T01:49:32;94721.28;;;19.83;36.84
66486;BME280;53303;47.476;8.084;2023-02-24T01:52:08;94721.13;;;19.94;36.65
66486;BME280;53303;47.476;8.084;2023-02-24T01:54:48;94703.66;;;19.80;36.68
66486;BME280;53303;47.476;8.084;2023-02-24T01:57:17;94709.16;;;19.86;36.70
66486;BME280;53303;47.476;8.084;2023-02-24T01:59:46;94700.38;;;19.82;36.67
66486;BME280;53303;47.476;8.084;2023-02-24T02:02:14;94700.09;;;19.85;36.96
66486;BME280;53303;47.476;8.084;2023-02-24T02:05:06;94717.59;;;19.93;36.58
66486;BME280;53303;47.476;8.084;2023-02-24T02:07:34;94688.88;;;19.77;36.80
66486;BME280;53303;47.476;8.084;2023-02-24T02:10:03;94700.84;;;19.86;36.74
66486;BME280;53303;47.476;8.084;2023-02-24T02:12:33;94699.13;;;19.83;36.56
66486;BME280;53303;47.476;8.084;2023-02-24T02:15:09;94713.31;;;19.92;36.74
66486;BME280;53303;47.476;8.084;2023-02-24T02:26:36;94704.59;;;19.88;36.67
66486;BME280;53303;47.476;8.084;2023-02-24T02:40:42;94714.63;;;19.91;36.80
66486;BME280;53303;47.476;8.084;2023-02-24T02:45:42;94713.09;;;19.90;36.72
66486;BME280;53303;47.476;8.084;2023-02-24T02:48:33;94709.59;;;19.90;36.73
66486;BME280;53303;47.476;8.084;2023-02-24T02:51:06;94693.13;;;19.78;36.79
66486;BME280;53303;47.476;8.084;2023-02-24T02:56:19;94696.88;;;19.81;36.66
66486;BME280;53303;47.476;8.084;2023-02-24T02:58:48;94704.78;;;19.90;36.92
66486;BME280;53303;47.476;8.084;2023-02-24T03:01:21;94705.03;;;19.92;36.64
66486;BME280;53303;47.476;8.084;2023-02-24T03:03:54;94693.88;;;19.79;36.79
66486;BME280;53303;47.476;8.084;2023-02-24T03:11:24;94698.09;;;19.86;36.64
66486;BME280;53303;47.476;8.084;2023-02-24T03:13:54;94683.09;;;19.75;36.85
66486;BME280;53303;47.476;8.084;2023-02-24T03:16:23;94708.31;;;19.91;36.70
66486;BME280;53303;47.476;8.084;2023-02-24T03:19:03;94708.09;;;19.89;36.79
66486;BME280;53303;47.476;8.084;2023-02-24T03:21:36;94705.84;;;19.87;36.76
66486;BME280;53303;47.476;8.084;2023-02-24T03:24:03;94692.28;;;19.84;36.69
66486;BME280;53303;47.476;8.084;2023-02-24T03:26:37;94700.78;;;19.91;36.83
66486;BME280;53303;47.476;8.084;2023-02-24T03:29:14;94689.09;;;19.80;36.85
66486;BME280;53303;47.476;8.084;2023-02-24T03:37:12;94647.22;;;19.64;36.84
66486;BME280;53303;47.476;8.084;2023-02-24T03:39:38;94685.41;;;19.90;36.88
66486;BME280;53303;47.476;8.084;2023-02-24T03:44:32;94677.41;;;19.87;36.93
66486;BME280;53303;47.476;8.084;2023-02-24T03:46:59;94667.16;;;19.82;36.82
66486;BME280;53303;47.476;8.084;2023-02-24T03:49:25;94677.13;;;19.90;36.74
66486;BME280;53303;47.476;8.084;2023-02-24T03:54:48;94669.84;;;19.87;36.42
66486;BME280;53303;47.476;8.084;2023-02-24T04:00:07;94651.97;;;19.88;36.80
66486;BME280;53303;47.476;8.084;2023-02-24T04:03:08;94649.28;;;19.83;36.75
66486;BME280;53303;47.476;8.084;2023-02-24T04:05:46;94660.81;;;19.87;36.79
66486;BME280;53303;47.476;8.084;2023-02-24T04:08:16;94653.53;;;19.84;36.71
66486;BME280;53303;47.476;8.084;2023-02-24T04:10:59;94660.28;;;19.88;36.82
66486;BME280;53303;47.476;8.084;2023-02-24T04:13:49;94667.38;;;19.84;36.76
66486;BME280;53303;47.476;8.084;2023-02-24T04:16:20;94664.31;;;19.87;36.81
66486;BME280;53303;47.476;8.084;2023-02-24T04:18:56;94654.75;;;19.88;36.92
66486;BME280;53303;47.476;8.084;2023-02-24T04:21:28;94654.13;;;19.76;36.64
66486;BME280;53303;47.476;8.084;2023-02-24T04:23:56;94656.25;;;19.89;36.75
66486;BME280;53303;47.476;8.084;2023-02-24T04:26:24;94648.69;;;19.90;36.74
66486;BME280;53303;47.476;8.084;2023-02-24T04:28:53;94657.00;;;19.90;36.81
66486;BME280;53303;47.476;8.084;2023-02-24T04:31:20;94650.72;;;19.89;36.90
66486;BME280;53303;47.476;8.084;2023-02-24T04:33:46;94644.41;;;19.89;36.94
66486;BME280;53303;47.476;8.084;2023-02-24T04:36:16;94649.94;;;19.89;36.77
66486;BME280;53303;47.476;8.084;2023-02-24T04:38:42;94637.69;;;19.84;36.84
66486;BME280;53303;47.476;8.084;2023-02-24T04:41:13;94644.41;;;19.89;36.78
66486;BME280;53303;47.476;8.084;2023-02-24T04:43:49;94644.41;;;19.89;36.85
66486;BME280;53303;47.476;8.084;2023-02-24T04:46:18;94635.38;;;19.88;36.86
66486;BME280;53303;47.476;8.084;2023-02-24T04:48:47;94635.88;;;19.87;36.87
66486;BME280;53303;47.476;8.084;2023-02-24T04:51:14;94608.72;;;19.66;36.89
66486;BME280;53303;47.476;8.084;2023-02-24T04:53:40;94611.94;;;19.70;36.93
66486;BME280;53303;47.476;8.084;2023-02-24T04:56:10;94627.66;;;19.81;36.95
66486;BME280;53303;47.476;8.084;2023-02-24T04:58:38;94618.69;;;19.75;36.81
66486;BME280;53303;47.476;8.084;2023-02-24T05:01:11;94639.63;;;19.89;36.65
66486;BME280;53303;47.476;8.084;2023-02-24T05:03:39;94627.28;;;19.90;36.49
66486;BME280;53303;47.476;8.084;2023-02-24T05:06:13;94629.31;;;19.90;36.59
66486;BME280;53303;47.476;8.084;2023-02-24T05:08:42;94622.03;;;19.87;36.23
66486;BME280;53303;47.476;8.084;2023-02-24T05:11:22;94623.78;;;19.90;36.38
66486;BME280;53303;47.476;8.084;2023-02-24T05:13:48;94603.50;;;19.82;36.16
66486;BME280;53303;47.476;8.084;2023-02-24T05:16:15;94612.00;;;19.84;36.05
66486;BME280;53303;47.476;8.084;2023-02-24T05:18:44;94594.53;;;19.75;36.09
66486;BME280;53303;47.476;8.084;2023-02-24T05:21:13;94614.16;;;19.91;36.01
66486;BME280;53303;47.476;8.084;2023-02-24T05:24:00;94590.25;;;19.74;36.08
66486;BME280;53303;47.476;8.084;2023-02-24T05:26:32;94609.94;;;19.90;36.07
66486;BME280;53303;47.476;8.084;2023-02-24T05:29:04;94612.69;;;19.90;36.10
66486;BME280;53303;47.476;8.084;2023-02-24T05:31:30;94597.44;;;19.83;35.98
66486;BME280;53303;47.476;8.084;2023-02-24T05:33:58;94600.34;;;19.91;36.08
66486;BME280;53303;47.476;8.084;2023-02-24T05:36:27;94597.56;;;19.91;36.04
66486;BME280;53303;47.476;8.084;2023-02-24T05:38:54;94585.84;;;19.85;36.25
66486;BME280;53303;47.476;8.084;2023-02-24T05:41:26;94588.31;;;19.88;36.14
66486;BME280;53303;47.476;8.084;2023-02-24T05:44:03;94594.28;;;19.92;36.24
66486;BME280;53303;47.476;8.084;2023-02-24T05:46:38;94599.59;;;19.90;36.27
66486;BME280;53303;47.476;8.084;2023-02-24T05:49:11;94585.16;;;19.78;36.13
66486;BME280;53303;47.476;8.084;2023-02-24T05:51:39;94612.38;;;19.93;36.31
66486;BME280;53303;47.476;8.084;2023-02-24T05:54:12;94606.13;;;19.93;36.17
66486;BME280;53303;47.476;8.084;2023-02-24T05:56:41;94593.72;;;19.81;36.37
66486;BME280;53303;47.476;8.084;2023-02-24T05:59:09;94599.47;;;19.83;36.27
66486;BME280;53303;47.476;8.084;2023-02-24T06:01:38;94601.84;;;19.92;36.22
66486;BME280;53303;47.476;8.084;2023-02-24T06:04:07;94604.31;;;19.95;36.16
66486;BME280;53303;47.476;8.084;2023-02-24T06:06:42;94585.00;;;19.90;36.39
66486;BME280;53303;47.476;8.084;2023-02-24T06:09:10;94569.66;;;19.89;36.13
66486;BME280;53303;47.476;8.084;2023-02-24T06:11:42;94567.97;;;19.86;36.13
66486;BME280;53303;47.476;8.084;2023-02-24T06:14:10;94560.19;;;19.84;36.36
66486;BME280;53303;47.476;8.084;2023-02-24T06:16:37;94574.59;;;19.96;36.34
66486;BME280;53303;47.476;8.084;2023-02-24T06:19:10;94584.91;;;19.95;36.37
66486;BME280;53303;47.476;8.084;2023-02-24T06:21:40;94574.16;;;19.92;36.58
66486;BME280;53303;47.476;8.084;2023-02-24T06:24:13;94577.34;;;19.96;36.27
66486;BME280;53303;47.476;8.084;2023-02-24T06:26:43;94573.09;;;19.95;36.40
66486;BME280;53303;47.476;8.084;2023-02-24T06:29:13;94580.13;;;19.96;36.38
66486;BME280;53303;47.476;8.084;2023-02-24T06:31:40;94566.69;;;19.87;36.12
66486;BME280;53303;47.476;8.084;2023-02-24T06:34:06;94560.84;;;19.90;36.15
66486;BME280;53303;47.476;8.084;2023-02-24T06:36:35;94546.88;;;19.83;36.37
66486;BME280;53303;47.476;8.084;2023-02-24T06:39:02;94553.03;;;19.89;36.47
66486;BME280;53303;47.476;8.084;2023-02-24T06:41:30;94546.13;;;19.82;36.38
66486;BME280;53303;47.476;8.084;2023-02-24T06:43:59;94554.88;;;19.86;36.60
66486;BME280;53303;47.476;8.084;2023-02-24T06:46:27;94580.44;;;19.92;36.37
66486;BME280;53303;47.476;8.084;2023-02-24T06:48:52;94557.47;;;19.78;36.26
66486;BME280;53303;47.476;8.084;2023-02-24T06:51:20;94580.66;;;19.94;36.53
66486;BME280;53303;47.476;8.084;2023-02-24T06:53:49;94570.34;;;19.95;36.44
66486;BME280;53303;47.476;8.084;2023-02-24T06:56:17;94555.00;;;19.94;36.43
66486;BME280;53303;47.476;8.084;2023-02-24T06:58:46;94551.25;;;19.91;36.39
66486;BME280;53303;47.476;8.084;2023-02-24T07:01:14;94565.22;;;19.99;36.49
66486;BME280;53303;47.476;8.084;2023-02-24T07:03:40;94557.44;;;19.97;36.32
66486;BME280;53303;47.476;8.084;2023-02-24T07:06:30;94531.72;;;19.84;36.33
66486;BME280;53303;47.476;8.084;2023-02-24T07:08:57;94546.38;;;19.97;36.43
66486;BME280;53303;47.476;8.084;2023-02-24T07:11:27;94523.66;;;19.86;36.46
66486;BME280;53303;47.476;8.084;2023-02-24T07:13:53;94533.44;;;19.87;36.30
66486;BME280;53303;47.476;8.084;2023-02-24T07:16:20;94544.13;;;19.96;36.37
66486;BME280;53303;47.476;8.084;2023-02-24T07:18:52;94533.16;;;19.90;36.59
66486;BME280;53303;47.476;8.084;2023-02-24T07:21:18;94538.91;;;19.92;36.59
66486;BME280;53303;47.476;8.084;2023-02-24T07:23:50;94549.34;;;20.00;36.43
66486;BME280;53303;47.476;8.084;2023-02-24T07:26:25;94552.13;;;20.00;36.30
66486;BME280;53303;47.476;8.084;2023-02-24T07:28:52;94516.03;;;19.73;36.46
66486;BME280;53303;47.476;8.084;2023-02-24T07:31:21;94552.88;;;20.00;36.51
66486;BME280;53303;47.476;8.084;2023-02-24T07:33:54;94552.88;;;20.00;36.36
66486;BME280;53303;47.476;8.084;2023-02-24T07:36:27;94545.63;;;19.97;36.46
66486;BME280;53303;47.476;8.084;2023-02-24T07:39:02;94550.06;;;19.87;36.65
66486;BME280;53303;47.476;8.084;2023-02-24T07:41:28;94544.22;;;19.90;36.57
66486;BME280;53303;47.476;8.084;2023-02-24T07:43:56;94544.88;;;19.96;36.25
66486;BME280;53303;47.476;8.084;2023-02-24T07:46:26;94534.97;;;19.88;36.50
66486;BME280;53303;47.476;8.084;2023-02-24T07:48:56;94544.88;;;19.96;36.45
66486;BME280;53303;47.476;8.084;2023-02-24T07:51:27;94501.69;;;19.74;36.68
66486;BME280;53303;47.476;8.084;2023-02-24T07:53:56;94508.63;;;19.81;36.43
66486;BME280;53303;47.476;8.084;2023-02-24T07:56:26;94527.97;;;20.00;36.58
66486;BME280;53303;47.476;8.084;2023-02-24T07:59:05;94518.25;;;19.93;36.51
66486;BME280;53303;47.476;8.084;2023-02-24T08:01:36;94518.91;;;20.00;36.49
66486;BME280;53303;47.476;8.084;2023-02-24T08:04:09;94512.50;;;19.91;36.42
66486;BME280;53303;47.476;8.084;2023-02-24T08:06:39;94506.44;;;19.93;36.58
66486;BME280;53303;47.476;8.084;2023-02-24T08:09:20;94506.34;;;19.99;36.48
66486;BME280;53303;47.476;8.084;2023-02-24T08:12:06;94494.47;;;19.85;36.41
66486;BME280;53303;47.476;8.084;2023-02-24T08:14:32;94464.72;;;19.72;36.46
66486;BME280;53303;47.476;8.084;2023-02-24T08:17:00;94506.56;;;20.01;36.36
66486;BME280;53303;47.476;8.084;2023-02-24T08:19:32;94496.53;;;19.97;36.36
66486;BME280;53303;47.476;8.084;2023-02-24T08:22:08;94490.88;;;19.90;36.53
66486;BME280;53303;47.476;8.084;2023-02-24T08:25:04;94495.78;;;19.97;36.46
66486;BME280;53303;47.476;8.084;2023-02-24T08:27:32;94504.09;;;19.97;36.56
66486;BME280;53303;47.476;8.084;2023-02-24T08:29:59;94493.66;;;19.90;36.46
66486;BME280;53303;47.476;8.084;2023-02-24T08:32:41;94511.88;;;19.99;36.46
66486;BME280;53303;47.476;8.084;2023-02-24T08:35:16;94514.13;;;20.00;36.46
66486;BME280;53303;47.476;8.084;2023-02-24T08:37:44;94498.34;;;19.95;36.42
66486;BME280;53303;47.476;8.084;2023-02-24T08:48:13;94502.50;;;20.02;36.55
66486;BME280;53303;47.476;8.084;2023-02-24T08:51:00;94501.03;;;20.01;36.64
66486;BME280;53303;47.476;8.084;2023-02-24T08:53:29;94480.34;;;19.88;36.59
66486;BME280;53303;47.476;8.084;2023-02-24T08:56:00;94500.50;;;20.02;36.59
66486;BME280;53303;47.476;8.084;2023-02-24T08:58:36;94459.03;;;19.83;36.45
66486;BME280;53303;47.476;8.084;2023-02-24T09:01:09;94490.16;;;20.03;36.54
66486;BME280;53303;47.476;8.084;2023-02-24T09:03:44;94457.88;;;19.92;36.63
66486;BME280;53303;47.476;8.084;2023-02-24T09:06:11;94454.16;;;19.89;36.61
66486;BME280;53303;47.476;8.084;2023-02-24T09:08:42;94430.38;;;19.81;36.50
66486;BME280;53303;47.476;8.084;2023-02-24T09:11:15;94459.69;;;20.03;36.52
66486;BME280;53303;47.476;8.084;2023-02-24T09:13:41;94461.38;;;19.92;36.79
66486;BME280;53303;47.476;8.084;2023-02-24T09:16:19;94458.59;;;19.92;36.77
66486;BME280;53303;47.476;8.084;2023-02-24T09:18:47;94436.56;;;19.87;36.57
66486;BME280;53303;47.476;8.084;2023-02-24T09:21:32;94448.94;;;19.99;36.80
66486;BME280;53303;47.476;8.084;2023-02-24T09:24:26;94439.44;;;19.94;36.59
66486;BME280;53303;47.476;8.084;2023-02-24T09:26:55;94427.22;;;19.90;36.60
66486;BME280;53303;47.476;8.084;2023-02-24T09:29:26;94446.06;;;19.91;36.66
66486;BME280;53303;47.476;8.084;2023-02-24T09:32:13;94442.84;;;19.87;36.91
66486;BME280;53303;47.476;8.084;2023-02-24T09:34:40;94431.44;;;19.91;36.64
66486;BME280;53303;47.476;8.084;2023-02-24T09:37:09;94434.56;;;20.01;36.60
66486;BME280;53303;47.476;8.084;2023-02-24T09:39:51;94438.81;;;20.02;36.73
66486;BME280;53303;47.476;8.084;2023-02-24T09:42:25;94407.25;;;19.78;36.48
66486;BME280;53303;47.476;8.084;2023-02-24T09:45:04;94421.88;;;19.92;36.80
66486;BME280;53303;47.476;8.084;2023-02-24T09:47:47;94410.38;;;19.88;36.72
66486;BME280;53303;47.476;8.084;2023-02-24T09:52:45;94425.72;;;20.02;36.80
66486;BME280;53303;47.476;8.084;2023-02-24T10:01:05;94399.53;;;19.90;36.66
66486;BME280;53303;47.476;8.084;2023-02-24T10:06:57;94406.66;;;19.99;36.38
66486;BME280;53303;47.476;8.084;2023-02-24T10:15:01;94401.03;;;20.04;36.79
66486;BME280;53303;47.476;8.084;2023-02-24T10:18:30;94399.50;;;20.03;36.82
66486;BME280;53303;47.476;8.084;2023-02-24T10:21:10;94380.78;;;19.96;36.77
66486;BME280;53303;47.476;8.084;2023-02-24T10:26:21;94355.00;;;19.88;36.56
66486;BME280;53303;47.476;8.084;2023-02-24T10:31:48;94378.03;;;20.09;36.63
66486;BME280;53303;47.476;8.084;2023-02-24T10:34:24;94375.25;;;20.09;36.65
66486;BME280;53303;47.476;8.084;2023-02-24T10:37:14;94378.22;;;20.11;36.68
66486;BME280;53303;47.476;8.084;2023-02-24T10:39:46;94364.81;;;20.02;36.48
66486;BME280;53303;47.476;8.084;2023-02-24T10:42:32;94371.19;;;20.10;36.67
66486;BME280;53303;47.476;8.084;2023-02-24T10:47:48;94367.47;;;20.08;36.71
66486;BME280;53303;47.476;8.084;2023-02-24T10:50:25;94374.94;;;20.13;36.69
66486;BME280;53303;47.476;8.084;2023-02-24T10:53:02;94377.16;;;20.14;36.81
66486;BME280;53303;47.476;8.084;2023-02-24T10:55:39;94374.59;;;20.16;36.41
66486;BME280;53303;47.476;8.084;2023-02-24T10:58:16;94369.06;;;20.16;36.76
66486;BME280;53303;47.476;8.084;2023-02-24T11:00:54;94365.88;;;20.12;36.71
66486;BME280;53303;47.476;8.084;2023-02-24T11:03:58;94363.84;;;20.13;36.63
66486;BME280;53303;47.476;8.084;2023-02-24T11:06:46;94349.56;;;20.09;36.95
66486;BME280;53303;47.476;8.084;2023-02-24T11:09:22;94363.22;;;20.20;36.66
66486;BME280;53303;47.476;8.084;2023-02-24T11:12:01;94358.00;;;20.16;36.99
66486;BME280;53303;47.476;8.084;2023-02-24T11:14:50;94362.47;;;20.20;36.57
66486;BME280;53303;47.476;8.084;2023-02-24T11:17:43;94349.25;;;20.12;36.57
66486;BME280;53303;47.476;8.084;2023-02-24T11:22:53;94323.91;;;20.08;36.77
66486;BME280;53303;47.476;8.084;2023-02-24T11:25:39;94330.28;;;20.16;36.74
66486;BME280;53303;47.476;8.084;2023-02-24T11:42:01;94275.34;;;20.07;36.70
66486;BME280;53303;47.476;8.084;2023-02-24T11:44:49;94293.84;;;20.26;36.67
66486;BME280;53303;47.476;8.084;2023-02-24T11:47:22;94253.84;;;20.00;36.57
66486;BME280;53303;47.476;8.084;2023-02-24T11:52:59;94255.31;;;20.14;36.48
66486;BME280;53303;47.476;8.084;2023-02-24T11:55:40;94276.88;;;20.29;36.55
66486;BME280;53303;47.476;8.084;2023-02-24T11:58:22;94271.34;;;20.29;36.78
66486;BME280;53303;47.476;8.084;2023-02-24T12:01:18;94268.25;;;20.33;36.60
66486;BME280;53303;47.476;8.084;2023-02-24T12:03:51;94238.91;;;20.16;36.35
66486;BME280;53303;47.476;8.084;2023-02-24T12:06:37;94265.81;;;20.29;36.67
66486;BME280;53303;47.476;8.084;2023-02-24T12:09:11;94255.66;;;20.32;36.67
66486;BME280;53303;47.476;8.084;2023-02-24T12:11:59;94256.75;;;20.29;36.56
66486;BME280;53303;47.476;8.084;2023-02-24T12:14:36;94246.09;;;20.33;36.38
66486;BME280;53303;47.476;8.084;2023-02-24T12:22:32;94233.75;;;20.34;36.91
66486;BME280;53303;47.476;8.084;2023-02-24T12:25:09;94217.03;;;20.26;36.64
66486;BME280;53303;47.476;8.084;2023-02-24T12:30:26;94228.28;;;20.42;36.60
66486;BME280;53303;47.476;8.084;2023-02-24T12:44:00;94207.34;;;20.54;36.53
66486;BME280;53303;47.476;8.084;2023-02-24T12:46:33;94213.06;;;20.56;36.29
66486;BME280;53303;47.476;8.084;2023-02-24T12:52:38;94206.59;;;20.53;36.64
66486;BME280;53303;47.476;8.084;2023-02-24T12:58:01;94209.66;;;20.63;36.33
66486;BME280;53303;47.476;8.084;2023-02-24T13:05:42;94178.75;;;20.59;36.59
66486;BME280;53303;47.476;8.084;2023-02-24T13:16:11;94169.78;;;20.66;36.09
66486;BME280;53303;47.476;8.084;2023-02-24T13:18:37;94166.47;;;20.68;36.24
66486;BME280;53303;47.476;8.084;2023-02-24T13:21:19;94182.81;;;20.79;36.15
66486;BME280;53303;47.476;8.084;2023-02-24T13:24:16;94174.50;;;20.79;36.35
66486;BME280;53303;47.476;8.084;2023-02-24T13:26:44;94176.38;;;20.84;36.22
66486;BME280;53303;47.476;8.084;2023-02-24T13:29:13;94160.63;;;20.79;36.20
66486;BME280;53303;47.476;8.084;2023-02-24T13:31:50;94171.22;;;20.88;36.22
66486;BME280;53303;47.476;8.084;2023-02-24T13:36:54;94143.81;;;20.77;35.84
66486;BME280;53303;47.476;8.084;2023-02-24T13:42:00;94162.91;;;20.88;36.10
66486;BME280;53303;47.476;8.084;2023-02-24T13:44:29;94148.81;;;20.79;36.32
66486;BME280;53303;47.476;8.084;2023-02-24T13:53:04;94159.06;;;20.91;36.15
66486;BME280;53303;47.476;8.084;2023-02-24T14:01:12;94131.41;;;20.78;36.10
66486;BME280;53303;47.476;8.084;2023-02-24T14:03:42;94122.72;;;20.74;36.28
66486;BME280;53303;47.476;8.084;2023-02-24T14:06:25;94133.50;;;20.85;36.17
66486;BME280;53303;47.476;8.084;2023-02-24T14:08:58;94123.09;;;20.78;36.21
66486;BME280;53303;47.476;8.084;2023-02-24T14:11:28;94106.22;;;20.68;36.23
66486;BME280;53303;47.476;8.084;2023-02-24T14:13:56;94133.16;;;20.89;36.04
66486;BME280;53303;47.476;8.084;2023-02-24T14:16:28;94123.91;;;20.86;36.25
66486;BME280;53303;47.476;8.084;2023-02-24T14:18:58;94141.72;;;20.99;36.19
66486;BME280;53303;47.476;8.084;2023-02-24T14:21:31;94125.78;;;20.91;36.33
66486;BME280;53303;47.476;8.084;2023-02-24T14:24:00;94124.50;;;20.92;36.26
66486;BME280;53303;47.476;8.084;2023-02-24T14:26:27;94100.72;;;20.76;36.42
66486;BME280;53303;47.476;8.084;2023-02-24T14:29:01;94131.16;;;20.89;36.36
66486;BME280;53303;47.476;8.084;2023-02-24T14:31:29;94116.09;;;20.77;36.28
66486;BME280;53303;47.476;8.084;2023-02-24T14:33:57;94117.34;;;20.76;36.54
66486;BME280;53303;47.476;8.084;2023-02-24T14:36:26;94127.41;;;20.87;36.44
66486;BME280;53303;47.476;8.084;2023-02-24T14:39:14;94121.63;;;20.77;36.66
66486;BME280;53303;47.476;8.084;2023-02-24T14:41:40;94126.69;;;20.86;36.51
66486;BME280;53303;47.476;8.084;2023-02-24T14:46:53;94134.81;;;20.84;36.58
66486;BME280;53303;47.476;8.084;2023-02-24T14:49:23;94134.81;;;20.84;36.57
66486;BME280;53303;47.476;8.084;2023-02-24T14:52:18;94133.66;;;20.80;36.66
66486;BME280;53303;47.476;8.084;2023-02-24T14:57:22;94134.41;;;20.80;36.64
66486;BME280;53303;47.476;8.084;2023-02-24T14:59:56;94123.66;;;20.77;36.66
66486;BME280;53303;47.476;8.084;2023-02-24T15:02:31;94117.16;;;20.74;36.82
66486;BME280;53303;47.476;8.084;2023-02-24T15:04:59;94129.69;;;20.67;36.63
66486;BME280;53303;47.476;8.084;2023-02-24T15:07:28;94137.06;;;20.65;36.80
66486;BME280;53303;47.476;8.084;2023-02-24T15:09:57;94179.44;;;20.73;36.76
66486;BME280;53303;47.476;8.084;2023-02-24T15:12:41;94197.75;;;20.76;36.86
66486;BME280;53303;47.476;8.084;2023-02-24T15:17:42;94173.13;;;20.72;36.79
66486;BME280;53303;47.476;8.084;2023-02-24T15:20:24;94174.97;;;20.70;36.79
66486;BME280;53303;47.476;8.084;2023-02-24T15:22:50;94174.44;;;20.71;36.83
66486;BME280;53303;47.476;8.084;2023-02-24T15:33:20;94090.78;;;20.60;37.11
66486;BME280;53303;47.476;8.084;2023-02-24T15:35:57;94097.38;;;20.70;36.79
66486;BME280;53303;47.476;8.084;2023-02-24T15:41:00;94099.59;;;20.71;36.94
66486;BME280;53303;47.476;8.084;2023-02-24T15:45:56;94079.50;;;20.58;37.11
66486;BME280;53303;47.476;8.084;2023-02-24T15:48:23;94087.72;;;20.63;37.03
66486;BME280;53303;47.476;8.084;2023-02-24T15:50:53;94096.88;;;20.58;37.24
66486;BME280;53303;47.476;8.084;2023-02-24T15:53:23;94082.63;;;20.54;37.17
66486;BME280;53303;47.476;8.084;2023-02-24T15:55:49;94081.34;;;20.55;37.18
66486;BME280;53303;47.476;8.084;2023-02-24T15:58:19;94098.66;;;20.69;37.14
66486;BME280;53303;47.476;8.084;2023-02-24T16:00:46;94076.56;;;20.56;37.28
66486;BME280;53303;47.476;8.084;2023-02-24T16:03:18;94062.28;;;20.51;37.13
66486;BME280;53303;47.476;8.084;2023-02-24T16:05:46;94091.63;;;20.68;37.15
66486;BME280;53303;47.476;8.084;2023-02-24T16:08:17;94073.78;;;20.56;37.00
66486;BME280;53303;47.476;8.084;2023-02-24T16:10:43;94071.41;;;20.60;37.04
66486;BME280;53303;47.476;8.084;2023-02-24T16:13:19;94078.13;;;20.64;37.23
66486;BME280;53303;47.476;8.084;2023-02-24T16:15:48;94070.66;;;20.59;37.33
66486;BME280;53303;47.476;8.084;2023-02-24T16:18:19;94063.31;;;20.62;37.24
66486;BME280;53303;47.476;8.084;2023-02-24T16:20:48;94048.66;;;20.53;37.32
66486;BME280;53303;47.476;8.084;2023-02-24T16:23:23;94059.66;;;20.67;37.28
66486;BME280;53303;47.476;8.084;2023-02-24T16:25:53;94057.41;;;20.65;37.35